createdAt,value
2023-04-02T00:01:04.215Z,97810.72
2023-04-02T00:03:43.991Z,97807.38
2023-04-02T00:06:33.610Z,97809.13
2023-04-02T00:09:22.163Z,97808.31
2023-04-02T00:11:54.747Z,97819.91
2023-04-02T00:14:33.550Z,97822.44
2023-04-02T00:17:02.953Z,97830.50
2023-04-02T00:19:42.110Z,97826.19
2023-04-02T00:22:15.888Z,97829.34
2023-04-02T00:24:42.484Z,97833.41
2023-04-02T00:27:14.202Z,97835.38
2023-04-02T00:29:55.515Z,97837.03
2023-04-02T00:32:27.696Z,97838.44
2023-04-02T00:34:55.554Z,97836.97
2023-04-02T00:37:28.073Z,97836.09
2023-04-02T00:40:07.145Z,97836.97
2023-04-02T00:42:35.936Z,97833.41
2023-04-02T00:45:04.236Z,97837.69
2023-04-02T00:47:36.837Z,97838.53
2023-04-02T00:50:10.968Z,97839.09
2023-04-02T00:52:39.124Z,97839.81
2023-04-02T00:55:05.832Z,97837.50
2023-04-02T00:57:33.523Z,97844.69
2023-04-02T01:00:21.693Z,97839.16
2023-04-02T01:03:16.499Z,97841.69
2023-04-02T01:06:02.775Z,97849.84
2023-04-02T01:09:06.310Z,97842.28
2023-04-02T01:12:07.963Z,97837.53
2023-04-02T01:15:01.324Z,97838.72
2023-04-02T01:17:49.485Z,97846.44
2023-04-02T01:20:47.038Z,97852.50
2023-04-02T01:23:42.115Z,97857.13
2023-04-02T01:26:11.476Z,97845.50
2023-04-02T01:29:11.873Z,97852.41
2023-04-02T01:31:39.727Z,97858.97
2023-04-02T01:34:09.117Z,97856.25
2023-04-02T01:37:01.965Z,97858.41
2023-04-02T01:39:56.266Z,97867.28
2023-04-02T01:42:45.640Z,97867.75
2023-04-02T01:45:17.988Z,97867.00
2023-04-02T01:47:45.046Z,97862.53
2023-04-02T01:50:27.116Z,97868.06
2023-04-02T01:52:59.512Z,97870.50
2023-04-02T01:55:42.031Z,97864.31
2023-04-02T01:58:11.645Z,97867.97
2023-04-02T02:00:47.315Z,97869.75
2023-04-02T02:03:14.437Z,97874.13
2023-04-02T02:05:41.415Z,97872.44
2023-04-02T02:08:22.108Z,97870.56
2023-04-02T02:10:49.399Z,97886.19
2023-04-02T02:13:16.413Z,97877.41
2023-04-02T02:15:44.368Z,97876.19
2023-04-02T02:18:13.282Z,97880.69
2023-04-02T02:20:40.141Z,97879.66
2023-04-02T02:23:07.350Z,97880.84
2023-04-02T02:25:36.323Z,97886.41
2023-04-02T02:28:18.238Z,97894.81
2023-04-02T02:30:56.100Z,97894.34
2023-04-02T02:33:28.948Z,97893.31
2023-04-02T02:36:16.254Z,97896.56
2023-04-02T02:38:49.489Z,97899.09
2023-04-02T02:41:19.228Z,97900.59
2023-04-02T02:44:04.591Z,97906.75
2023-04-02T02:46:34.229Z,97907.69
2023-04-02T02:49:04.578Z,97908.28
2023-04-02T02:51:45.507Z,97903.13
2023-04-02T02:54:14.419Z,97907.81
2023-04-02T02:56:47.981Z,97916.59
2023-04-02T02:59:16.171Z,97913.03
2023-04-02T03:01:44.526Z,97913.78
2023-04-02T03:04:11.627Z,97913.22
2023-04-02T03:06:40.210Z,97919.75
2023-04-02T03:09:06.727Z,97913.59
2023-04-02T03:11:47.395Z,97919.22
2023-04-02T03:14:28.818Z,97923.88
2023-04-02T03:17:12.603Z,97925.47
2023-04-02T03:19:47.253Z,97929.03
2023-04-02T03:22:37.747Z,97925.75
2023-04-02T03:25:33.224Z,97930.31
2023-04-02T03:28:08.252Z,97933.97
2023-04-02T03:30:43.261Z,97936.75
2023-04-02T03:33:31.779Z,97940.03
2023-04-02T03:36:05.261Z,97942.66
2023-04-02T03:38:41.890Z,97940.91
2023-04-02T03:41:16.811Z,97942.38
2023-04-02T03:43:48.654Z,97949.84
2023-04-02T03:46:32.775Z,97958.28
2023-04-02T03:49:05.907Z,97960.44
2023-04-02T03:51:40.921Z,97965.09
2023-04-02T03:54:13.875Z,97967.41
2023-04-02T03:56:41.439Z,97968.19
2023-04-02T03:59:26.575Z,97970.50
2023-04-02T04:02:26.836Z,97975.25
2023-04-02T04:04:55.955Z,97969.41
2023-04-02T04:07:34.092Z,97981.44
2023-04-02T04:10:02.466Z,97975.66
2023-04-02T04:12:34.616Z,97982.75
2023-04-02T04:15:16.804Z,97979.03
2023-04-02T04:18:04.438Z,97978.28
2023-04-02T04:20:36.453Z,97990.22
2023-04-02T04:23:17.639Z,97989.97
2023-04-02T04:25:44.173Z,97991.81
2023-04-02T04:28:31.223Z,97998.47
2023-04-02T04:31:04.210Z,97994.91
2023-04-02T04:33:40.055Z,98002.84
2023-04-02T04:36:28.741Z,98005.28
2023-04-02T04:38:59.573Z,98005.19
2023-04-02T04:41:34.254Z,98022.50
2023-04-02T04:44:20.506Z,98017.06
2023-04-02T04:47:03.991Z,98021.44
2023-04-02T04:49:47.680Z,98020.97
2023-04-02T04:52:18.036Z,98021.81
2023-04-02T04:54:46.103Z,98021.56
2023-04-02T04:57:40.003Z,98031.75
2023-04-02T05:00:22.944Z,98033.81
2023-04-02T05:02:59.454Z,98039.03
2023-04-02T05:05:31.389Z,98044.28
2023-04-02T05:08:10.444Z,98047.75
2023-04-02T05:10:49.722Z,98053.06
2023-04-02T05:13:28.027Z,98059.78
2023-04-02T05:16:11.019Z,98055.03
2023-04-02T05:18:46.517Z,98058.31
2023-04-02T05:21:20.300Z,98059.00
2023-04-02T05:23:51.695Z,98065.06
2023-04-02T05:26:41.367Z,98063.94
2023-04-02T05:29:23.074Z,98071.88
2023-04-02T05:32:04.261Z,98072.91
2023-04-02T05:34:34.978Z,98073.47
2023-04-02T05:37:01.976Z,98085.63
2023-04-02T05:39:28.614Z,98081.31
2023-04-02T05:42:05.608Z,98087.13
2023-04-02T05:44:37.292Z,98079.09
2023-04-02T05:47:08.824Z,98093.88
2023-04-02T05:49:50.940Z,98096.41
2023-04-02T05:52:29.517Z,98099.03
2023-04-02T05:55:05.630Z,98096.56
2023-04-02T05:58:13.615Z,98102.41
2023-04-02T06:01:01.484Z,98104.28
2023-04-02T06:03:30.901Z,98115.75
2023-04-02T06:06:03.985Z,98112.94
2023-04-02T06:08:38.247Z,98112.47
2023-04-02T06:11:18.530Z,98123.53
2023-04-02T06:13:45.195Z,98125.22
2023-04-02T06:16:16.114Z,98131.84
2023-04-02T06:18:43.784Z,98128.13
2023-04-02T06:21:16.053Z,98134.84
2023-04-02T06:23:55.143Z,98134.75
2023-04-02T06:26:27.720Z,98142.03
2023-04-02T06:29:14.516Z,98145.88
2023-04-02T06:31:43.366Z,98156.94
2023-04-02T06:34:18.860Z,98150.78
2023-04-02T06:36:46.538Z,98147.69
2023-04-02T06:39:22.847Z,98149.25
2023-04-02T06:42:06.382Z,98156.75
2023-04-02T06:44:36.727Z,98169.69
2023-04-02T06:47:11.835Z,98168.66
2023-04-02T06:49:46.915Z,98181.38
2023-04-02T06:52:21.545Z,98177.44
2023-04-02T06:54:48.411Z,98184.94
2023-04-02T06:57:15.083Z,98193.34
2023-04-02T06:59:41.854Z,98199.91
2023-04-02T07:02:17.625Z,98195.69
2023-04-02T07:04:44.349Z,98193.41
2023-04-02T07:07:11.187Z,98206.81
2023-04-02T07:09:37.745Z,98207.47
2023-04-02T07:12:11.904Z,98213.72
2023-04-02T07:14:38.471Z,98221.13
2023-04-02T07:17:05.076Z,98225.69
2023-04-02T07:19:31.699Z,98232.78
2023-04-02T07:21:58.255Z,98234.00
2023-04-02T07:24:24.845Z,98238.88
2023-04-02T07:26:51.462Z,98249.56
2023-04-02T07:29:18.332Z,98250.22
2023-04-02T07:31:44.967Z,98264.84
2023-04-02T07:34:11.835Z,98265.31
2023-04-02T07:36:38.394Z,98271.88
2023-04-02T07:39:05.012Z,98271.88
2023-04-02T07:41:31.754Z,98283.47
2023-04-02T07:43:58.311Z,98276.91
2023-04-02T07:46:25.981Z,98287.00
2023-04-02T07:48:52.750Z,98280.81
2023-04-02T07:51:22.620Z,98287.97
2023-04-02T07:53:50.681Z,98290.84
2023-04-02T07:56:19.713Z,98289.72
2023-04-02T07:58:46.787Z,98296.09
2023-04-02T08:01:17.083Z,98294.63
2023-04-02T08:03:43.833Z,98291.25
2023-04-02T08:06:10.739Z,98298.28
2023-04-02T08:08:37.446Z,98305.38
2023-04-02T08:11:04.270Z,98311.88
2023-04-02T08:13:32.044Z,98322.09
2023-04-02T08:16:00.654Z,98317.44
2023-04-02T08:18:28.640Z,98320.84
2023-04-02T08:20:55.326Z,98323.56
2023-04-02T08:23:22.343Z,98334.03
2023-04-02T08:25:49.660Z,98333.09
2023-04-02T08:28:16.721Z,98345.25
2023-04-02T08:30:43.987Z,98346.06
2023-04-02T08:33:10.976Z,98343.88
2023-04-02T08:35:37.821Z,98352.88
2023-04-02T08:38:04.760Z,98355.34
2023-04-02T08:40:36.219Z,98360.75
2023-04-02T08:43:20.804Z,98362.78
2023-04-02T08:46:26.078Z,98374.94
2023-04-02T08:48:59.176Z,98377.03
2023-04-02T08:51:32.582Z,98376.94
2023-04-02T08:54:18.597Z,98382.84
2023-04-02T08:56:56.218Z,98384.88
2023-04-02T08:59:33.676Z,98391.09
2023-04-02T09:02:06.021Z,98391.69
2023-04-02T09:04:33.928Z,98396.72
2023-04-02T09:07:00.923Z,98404.41
2023-04-02T09:09:28.126Z,98404.09
2023-04-02T09:12:04.560Z,98404.91
2023-04-02T09:14:46.599Z,98411.97
2023-04-02T09:17:24.697Z,98417.13
2023-04-02T09:19:59.314Z,98420.41
2023-04-02T09:22:31.805Z,98424.47
2023-04-02T09:25:01.608Z,98428.09
2023-04-02T09:27:31.749Z,98435.56
2023-04-02T09:30:08.988Z,98439.63
2023-04-02T09:32:53.896Z,98437.19
2023-04-02T09:35:26.215Z,98457.94
2023-04-02T09:38:11.972Z,98459.44
2023-04-02T09:40:44.477Z,98462.31
2023-04-02T09:43:20.493Z,98469.94
2023-04-02T09:46:00.835Z,98475.28
2023-04-02T09:48:32.228Z,98473.56
2023-04-02T09:51:14.070Z,98473.31
2023-04-02T09:53:46.678Z,98481.38
2023-04-02T09:56:21.706Z,98484.94
2023-04-02T09:59:04.739Z,98489.56
2023-04-02T10:01:37.426Z,98488.97
2023-04-02T10:04:06.630Z,98493.09
2023-04-02T10:06:34.752Z,98491.28
2023-04-02T10:09:32.364Z,98494.88
2023-04-02T10:12:02.040Z,98500.03
2023-04-02T10:14:32.279Z,98500.03
2023-04-02T10:17:07.560Z,98513.22
2023-04-02T10:19:40.401Z,98520.28
2023-04-02T10:22:15.227Z,98518.78
2023-04-02T10:24:41.956Z,98523.13
2023-04-02T10:27:28.868Z,98526.19
2023-04-02T10:30:20.794Z,98538.19
2023-04-02T10:33:17.691Z,98531.44
2023-04-02T10:35:53.976Z,98535.25
2023-04-02T10:38:45.473Z,98535.44
2023-04-02T10:41:33.261Z,98541.47
2023-04-02T10:44:19.418Z,98544.94
2023-04-02T10:47:09.764Z,98553.06
2023-04-02T10:50:21.602Z,98552.84
2023-04-02T10:53:03.212Z,98558.53
2023-04-02T10:55:34.055Z,98561.25
2023-04-02T10:58:06.025Z,98561.56
2023-04-02T11:00:39.110Z,98567.97
2023-04-02T11:03:11.429Z,98573.59
2023-04-02T11:05:52.423Z,98575.38
2023-04-02T11:08:27.588Z,98577.91
2023-04-02T11:11:04.336Z,98589.84
2023-04-02T11:13:40.385Z,98593.28
2023-04-02T11:16:07.154Z,98587.72
2023-04-02T11:18:38.620Z,98596.16
2023-04-02T11:21:24.921Z,98589.00
2023-04-02T11:23:59.779Z,98605.25
2023-04-02T11:26:29.815Z,98607.47
2023-04-02T11:29:34.926Z,98600.97
2023-04-02T11:32:27.543Z,98604.91
2023-04-02T11:35:05.819Z,98611.22
2023-04-02T11:37:44.679Z,98613.25
2023-04-02T11:40:11.165Z,98619.25
2023-04-02T11:42:42.865Z,98617.91
2023-04-02T11:45:24.632Z,98624.22
2023-04-02T11:48:00.723Z,98632.25
2023-04-02T11:50:30.417Z,98631.59
2023-04-02T11:53:04.585Z,98630.97
2023-04-02T11:55:36.205Z,98640.13
2023-04-02T11:58:24.747Z,98647.34
2023-04-02T12:01:00.266Z,98649.81
2023-04-02T12:04:04.527Z,98652.66
2023-04-02T12:06:47.147Z,98650.25
2023-04-02T12:09:31.018Z,98654.56
2023-04-02T12:12:15.736Z,98659.63
2023-04-02T12:14:51.950Z,98659.41
2023-04-02T12:17:40.291Z,98666.13
2023-04-02T12:20:08.438Z,98672.25
2023-04-02T12:22:49.382Z,98673.94
2023-04-02T12:25:34.504Z,98682.13
2023-04-02T12:28:09.986Z,98682.53
2023-04-02T12:30:38.403Z,98689.69
2023-04-02T12:33:20.243Z,98696.94
2023-04-02T12:35:48.080Z,98699.03
2023-04-02T12:38:32.457Z,98705.78
2023-04-02T12:41:19.069Z,98714.63
2023-04-02T12:43:45.684Z,98708.63
2023-04-02T12:46:14.598Z,98730.59
2023-04-02T12:48:41.385Z,98733.72
2023-04-02T12:51:08.062Z,98736.63
2023-04-02T12:53:39.176Z,98740.47
2023-04-02T12:56:06.305Z,98742.00
2023-04-02T12:58:38.554Z,98743.84
2023-04-02T13:01:16.234Z,98748.94
2023-04-02T13:03:42.953Z,98751.28
2023-04-02T13:06:23.429Z,98755.59
2023-04-02T13:08:51.234Z,98760.78
2023-04-02T13:11:18.163Z,98756.06
2023-04-02T13:13:47.331Z,98761.19
2023-04-02T13:16:19.922Z,98765.50
2023-04-02T13:18:48.959Z,98763.94
2023-04-02T13:21:29.289Z,98766.41
2023-04-02T13:23:55.884Z,98775.25
2023-04-02T13:26:25.811Z,98777.03
2023-04-02T13:29:21.836Z,98782.25
2023-04-02T13:31:49.165Z,98791.53
2023-04-02T13:34:15.907Z,98786.81
2023-04-02T13:36:42.508Z,98786.31
2023-04-02T13:39:09.216Z,98789.50
2023-04-02T13:41:48.904Z,98792.94
2023-04-02T13:44:37.057Z,98800.09
2023-04-02T13:47:03.842Z,98801.84
2023-04-02T13:49:31.747Z,98811.16
2023-04-02T13:52:05.660Z,98812.19
2023-04-02T13:54:51.092Z,98812.09
2023-04-02T13:57:17.945Z,98819.50
2023-04-02T13:59:44.671Z,98825.00
2023-04-02T14:02:19.010Z,98827.06
2023-04-02T14:04:50.948Z,98833.06
2023-04-02T14:07:55.722Z,98841.31
2023-04-02T14:10:37.718Z,98850.88
2023-04-02T14:13:16.711Z,98850.03
2023-04-02T14:16:08.872Z,98852.06
2023-04-02T14:18:53.817Z,98855.13
2023-04-02T14:21:49.216Z,98858.91
2023-04-02T14:24:33.025Z,98867.41
2023-04-02T14:27:24.577Z,98868.06
2023-04-02T14:30:33.043Z,98881.81
2023-04-02T14:33:07.354Z,98882.72
2023-04-02T14:35:42.950Z,98874.69
2023-04-02T14:38:35.259Z,98887.38
2023-04-02T14:41:13.880Z,98890.63
2023-04-02T14:43:54.644Z,98897.47
2023-04-02T14:46:26.832Z,98904.16
2023-04-02T14:49:03.942Z,98907.34
2023-04-02T14:51:38.148Z,98906.06
2023-04-02T14:54:09.494Z,98915.31
2023-04-02T14:57:04.278Z,98910.91
2023-04-02T14:59:37.039Z,98921.56
2023-04-02T15:02:19.079Z,98918.25
2023-04-02T15:05:01.501Z,98925.22
2023-04-02T15:07:38.532Z,98933.84
2023-04-02T15:10:11.226Z,98941.16
2023-04-02T15:12:41.000Z,98948.16
2023-04-02T15:15:40.277Z,98944.16
2023-04-02T15:18:16.731Z,98946.84
2023-04-02T15:20:48.807Z,98949.41
2023-04-02T15:23:37.737Z,98955.84
2023-04-02T15:26:22.914Z,98950.09
2023-04-02T15:29:13.211Z,98957.09
2023-04-02T15:31:46.690Z,98954.41
2023-04-02T15:34:35.440Z,98957.03
2023-04-02T15:37:14.245Z,98966.50
2023-04-02T15:40:11.653Z,98965.94
2023-04-02T15:42:44.437Z,98971.28
2023-04-02T15:45:29.443Z,98978.13
2023-04-02T15:47:59.037Z,98984.75
2023-04-02T15:50:42.863Z,98988.09
2023-04-02T15:53:32.271Z,98993.69
2023-04-02T15:56:01.897Z,98993.03
2023-04-02T15:59:02.288Z,99004.38
2023-04-02T16:01:41.735Z,99004.47
2023-04-02T16:04:13.965Z,99011.53
2023-04-02T16:07:20.510Z,99015.19
2023-04-02T16:10:37.942Z,99020.09
2023-04-02T16:13:28.957Z,99030.47
2023-04-02T16:16:01.628Z,99027.31
2023-04-02T16:18:41.497Z,99031.31
2023-04-02T16:26:29.461Z,99040.53
2023-04-02T16:29:15.573Z,99042.84
2023-04-02T16:32:17.410Z,99046.53
2023-04-02T16:35:19.251Z,99051.88
2023-04-02T16:37:58.465Z,99053.75
2023-04-02T16:40:40.487Z,99063.59
2023-04-02T16:43:32.009Z,99063.34
2023-04-02T16:46:39.897Z,99063.47
2023-04-02T16:49:19.270Z,99068.31
2023-04-02T16:51:53.082Z,99077.84
2023-04-02T16:54:34.804Z,99081.66
2023-04-02T16:57:01.293Z,99090.41
2023-04-02T16:59:58.309Z,99090.28
2023-04-02T17:02:24.909Z,99100.06
2023-04-02T17:05:19.709Z,99098.47
2023-04-02T17:08:01.764Z,99096.75
2023-04-02T17:10:56.165Z,99110.03
2023-04-02T17:13:40.549Z,99112.22
2023-04-02T17:16:14.015Z,99118.44
2023-04-02T17:18:43.693Z,99129.56
2023-04-02T17:21:15.216Z,99135.72
2023-04-02T17:23:56.322Z,99132.03
2023-04-02T17:26:27.595Z,99134.72
2023-04-02T17:28:56.272Z,99134.91
2023-04-02T17:31:25.766Z,99146.31
2023-04-02T17:33:52.783Z,99133.66
2023-04-02T17:36:44.399Z,99143.00
2023-04-02T17:39:31.359Z,99154.56
2023-04-02T17:42:20.177Z,99157.50
2023-04-02T17:44:59.274Z,99162.78
2023-04-02T17:47:33.831Z,99166.38
2023-04-02T17:50:12.468Z,99171.00
2023-04-02T17:53:04.583Z,99178.16
2023-04-02T17:55:58.390Z,99183.31
2023-04-02T17:58:40.465Z,99186.00
2023-04-02T18:01:28.383Z,99188.50
2023-04-02T18:04:13.320Z,99199.13
2023-04-02T18:06:53.800Z,99206.50
2023-04-02T18:09:46.450Z,99209.25
2023-04-02T18:12:12.877Z,99217.19
2023-04-02T18:15:05.927Z,99225.84
2023-04-02T18:17:50.831Z,99226.91
2023-04-02T18:20:36.377Z,99230.50
2023-04-02T18:23:23.255Z,99234.66
2023-04-02T18:26:22.309Z,99244.03
2023-04-02T18:28:48.828Z,99247.44
2023-04-02T18:31:18.382Z,99252.00
2023-04-02T18:34:03.315Z,99257.97
2023-04-02T18:36:42.868Z,99265.81
2023-04-02T18:39:25.139Z,99270.97
2023-04-02T18:42:13.735Z,99277.16
2023-04-02T18:44:53.132Z,99285.03
2023-04-02T18:47:34.599Z,99286.47
2023-04-02T18:50:23.145Z,99285.56
2023-04-02T18:52:51.015Z,99297.81
2023-04-02T18:55:21.756Z,99302.22
2023-04-02T18:57:57.241Z,99318.63
2023-04-02T19:00:31.601Z,99320.56
2023-04-02T19:03:01.379Z,99318.38
2023-04-02T19:05:31.222Z,99326.13
2023-04-02T19:08:08.513Z,99339.31
2023-04-02T19:10:39.005Z,99337.00
2023-04-02T19:13:20.506Z,99344.75
2023-04-02T19:15:59.239Z,99349.63
2023-04-02T19:18:41.349Z,99351.19
2023-04-02T19:21:21.516Z,99351.94
2023-04-02T19:24:28.508Z,99346.94
2023-04-02T19:27:13.782Z,99358.41
2023-04-02T19:29:59.219Z,99362.19
2023-04-02T19:32:48.190Z,99365.66
2023-04-02T19:35:24.964Z,99376.06
2023-04-02T19:38:12.971Z,99383.00
2023-04-02T19:40:46.629Z,99384.88
2023-04-02T19:43:13.323Z,99393.88
2023-04-02T19:45:43.185Z,99396.53
2023-04-02T19:48:19.396Z,99401.13
2023-04-02T19:50:46.723Z,99404.84
2023-04-02T19:53:13.959Z,99411.00
2023-04-02T19:55:42.351Z,99410.22
2023-04-02T19:58:27.415Z,99405.78
2023-04-02T20:00:54.750Z,99415.50
2023-04-02T20:03:22.092Z,99413.63
2023-04-02T20:05:48.948Z,99417.94
2023-04-02T20:08:16.192Z,99430.97
2023-04-02T20:10:43.082Z,99432.81
2023-04-02T20:13:09.787Z,99430.25
2023-04-02T20:15:36.921Z,99439.19
2023-04-02T20:18:04.527Z,99447.06
2023-04-02T20:20:31.454Z,99438.44
2023-04-02T20:22:58.114Z,99445.25
2023-04-02T20:25:24.791Z,99459.25
2023-04-02T20:27:51.486Z,99452.34
2023-04-02T20:30:18.267Z,99456.00
2023-04-02T20:32:45.172Z,99465.38
2023-04-02T20:35:12.311Z,99456.84
2023-04-02T20:37:41.908Z,99465.56
2023-04-02T20:40:10.006Z,99472.41
2023-04-02T20:42:36.745Z,99469.16
2023-04-02T20:45:05.325Z,99478.69
2023-04-02T20:47:32.161Z,99480.50
2023-04-02T20:49:58.847Z,99491.16
2023-04-02T20:52:25.722Z,99486.84
2023-04-02T20:54:52.414Z,99487.81
2023-04-02T20:57:21.825Z,99490.53
2023-04-02T20:59:48.804Z,99485.31
2023-04-02T21:02:15.590Z,99488.81
2023-04-02T21:04:42.190Z,99485.34
2023-04-02T21:07:08.864Z,99493.16
2023-04-02T21:09:35.729Z,99488.88
2023-04-02T21:12:03.024Z,99495.13
2023-04-02T21:14:35.628Z,99495.94
2023-04-02T21:17:02.244Z,99502.00
2023-04-02T21:19:28.977Z,99511.72
2023-04-02T21:21:55.728Z,99512.53
2023-04-02T21:24:22.330Z,99521.13
2023-04-02T21:26:48.919Z,99522.00
2023-04-02T21:29:16.068Z,99529.91
2023-04-02T21:31:42.807Z,99528.16
2023-04-02T21:34:13.589Z,99534.28
2023-04-02T21:36:42.732Z,99541.28
2023-04-02T21:39:12.392Z,99537.97
2023-04-02T21:41:41.445Z,99539.84
2023-04-02T21:44:10.343Z,99537.13
2023-04-02T21:46:38.722Z,99544.88
2023-04-02T21:49:09.888Z,99546.66
2023-04-02T21:51:37.202Z,99544.91
2023-04-02T21:54:04.202Z,99531.03
2023-04-02T21:56:36.023Z,99533.63
2023-04-02T21:59:04.114Z,99536.25
2023-04-02T22:01:33.182Z,99529.34
2023-04-02T22:04:02.112Z,99530.38
2023-04-02T22:06:31.752Z,99542.75
2023-04-02T22:09:04.846Z,99544.63
2023-04-02T22:11:34.867Z,99543.84
2023-04-02T22:14:03.549Z,99539.44
2023-04-02T22:16:32.057Z,99547.50
2023-04-02T22:19:01.926Z,99547.34
2023-04-02T22:21:29.976Z,99545.56
2023-04-02T22:23:58.765Z,99548.16
2023-04-02T22:26:25.813Z,99545.56
2023-04-02T22:28:52.770Z,99547.44
2023-04-02T22:31:25.839Z,99545.72
2023-04-02T22:33:54.638Z,99554.41
2023-04-02T22:36:22.486Z,99540.53
2023-04-02T22:38:49.765Z,99545.81
2023-04-02T22:41:36.295Z,99550.25
2023-04-02T22:44:02.959Z,99557.28
2023-04-02T22:46:30.614Z,99558.97
2023-04-02T22:48:57.475Z,99560.69
2023-04-02T22:51:25.417Z,99557.19
2023-04-02T22:53:54.170Z,99563.25
2023-04-02T22:56:27.600Z,99557.97
2023-04-02T22:58:54.439Z,99568.66
2023-04-02T23:01:25.011Z,99570.56
2023-04-02T23:03:55.137Z,99569.75
2023-04-02T23:06:22.269Z,99575.03
2023-04-02T23:08:48.862Z,99581.06
2023-04-02T23:11:24.476Z,99572.28
2023-04-02T23:13:53.092Z,99582.78
2023-04-02T23:16:20.665Z,99573.19
2023-04-02T23:18:48.647Z,99578.38
2023-04-02T23:21:16.885Z,99587.22
2023-04-02T23:23:43.900Z,99586.47
2023-04-02T23:26:14.511Z,99582.22
2023-04-02T23:28:42.206Z,99586.53
2023-04-02T23:31:13.006Z,99577.13
2023-04-02T23:33:39.917Z,99583.34
2023-04-02T23:36:24.886Z,99588.66
2023-04-02T23:38:55.498Z,99584.28
2023-04-02T23:41:24.270Z,99573.25
2023-04-02T23:43:51.173Z,99586.34
2023-04-02T23:46:17.922Z,99577.72
2023-04-02T23:48:46.004Z,99577.72
2023-04-02T23:51:13.379Z,99571.63
2023-04-02T23:53:40.144Z,99575.19
2023-04-02T23:56:06.965Z,99575.00
2023-04-02T23:58:33.656Z,99573.25
